Romeo-charlie II — FO2619 — position and weather

sailwx.info

Track history (hours):
 
Tides and Currents Weather Stations Pressure Air Temp Water Temp Dewpoint Dewpoint Depression Visibility Wind Speed Wind Dir Waves Ship Positions

Romeo-charlie II

Last reported at 2015-Aug-02 07:16 UTC. Time now 2015-Aug-02 16:30 UTC.
Position N 48°11' W 004°42'.

Length 12 m.

Type: Sailing vessel. MMSI: 227728860.

Date/timePositionNaut miles runAvg speedWind from/ knotsBaromVisibWave heightAir tempDewpointWater temp
2015-Aug-02 07:16N 48°11' W 004°42'5 6.4
2015-Aug-02 06:33N 48°15' W 004°40'3 0.2
2015-Aug-01 09:11N 48°17' W 004°35'1 2.4
2015-Aug-01 08:33N 48°17' W 004°37'  
2015-Jul-26 08:33N 50°44' E 000°16'4 4.0
2015-Jul-26 07:30N 50°47' E 000°20'0 0.1
2015-Jul-26 06:26N 50°48' E 000°20'0 0.0
2015-Jul-26 05:26N 50°48' E 000°20'0 0.0
2015-Jul-26 04:32N 50°48' E 000°20'0 0.0
2015-Jul-26 03:29N 50°48' E 000°20'0 0.0
2015-Jul-26 00:20N 50°48' E 000°20'0 0.0
2015-Jul-25 23:15N 50°48' E 000°20'0 0.0
2015-Jul-25 22:32N 50°48' E 000°20'0 0.0
2015-Jul-25 21:33N 50°48' E 000°20'0 0.0
2015-Jul-25 20:33N 50°48' E 000°20'0 0.0
2015-Jul-25 19:27N 50°48' E 000°20'0 0.0
2015-Jul-25 18:33N 50°48' E 000°20'1 0.9
2015-Jul-25 17:33N 50°47' E 000°21'4 4.1
2015-Jul-25 16:33N 50°49' E 000°27'85 3.1
2015-Jul-24 12:33N 51°09' E 002°39'  
Track history (hours):
 
Tides and Currents Weather Stations Pressure Air Temp Water Temp Dewpoint Dewpoint Depression Visibility Wind Speed Wind Dir Waves Ship Positions

Romeo-charlie II

Last reported at 2015-Aug-02 07:16 UTC. Time now 2015-Aug-02 16:30 UTC.
Position N 48°11' W 004°42'.

Length 12 m.

Type: Sailing vessel. MMSI: 227728860.

Date/timePositionNaut miles runAvg speedWind from/ knotsBaromVisibWave heightAir tempDewpointWater temp
2015-Aug-02 07:16N 48°11' W 004°42'5 6.4
2015-Aug-02 06:33N 48°15' W 004°40'3 0.2
2015-Aug-01 09:11N 48°17' W 004°35'1 2.4
2015-Aug-01 08:33N 48°17' W 004°37'  
2015-Jul-26 08:33N 50°44' E 000°16'4 4.0
2015-Jul-26 07:30N 50°47' E 000°20'0 0.1
2015-Jul-26 06:26N 50°48' E 000°20'0 0.0
2015-Jul-26 05:26N 50°48' E 000°20'0 0.0
2015-Jul-26 04:32N 50°48' E 000°20'0 0.0
2015-Jul-26 03:29N 50°48' E 000°20'0 0.0
2015-Jul-26 00:20N 50°48' E 000°20'0 0.0
2015-Jul-25 23:15N 50°48' E 000°20'0 0.0
2015-Jul-25 22:32N 50°48' E 000°20'0 0.0
2015-Jul-25 21:33N 50°48' E 000°20'0 0.0
2015-Jul-25 20:33N 50°48' E 000°20'0 0.0
2015-Jul-25 19:27N 50°48' E 000°20'0 0.0
2015-Jul-25 18:33N 50°48' E 000°20'1 0.9
2015-Jul-25 17:33N 50°47' E 000°21'4 4.1
2015-Jul-25 16:33N 50°49' E 000°27'85 3.1
2015-Jul-24 12:33N 51°09' E 002°39'  

Dump ship's entire track history